createdAt,value
2019-02-03T00:00:08.996Z,60560.48
2019-02-03T00:02:37.782Z,60590.96
2019-02-03T00:05:08.221Z,60579.79
2019-02-03T00:07:36.611Z,60602.14
2019-02-03T00:10:08.180Z,60601.13
2019-02-03T00:12:36.586Z,60642.79
2019-02-03T00:15:08.037Z,60619.42
2019-02-03T00:17:36.764Z,60611.29
2019-02-03T00:20:08.528Z,60583.85
2019-02-03T00:22:37.445Z,60582.84
2019-02-03T00:25:08.960Z,60587.92
2019-02-03T00:27:37.347Z,60601.13
2019-02-03T00:30:09.030Z,60593.00
2019-02-03T00:32:37.418Z,60615.36
2019-02-03T00:35:06.946Z,60577.75
2019-02-03T00:37:35.926Z,60613.32
2019-02-03T00:40:07.212Z,60587.92
2019-02-03T00:42:35.821Z,60582.84
2019-02-03T00:45:06.506Z,60600.11
2019-02-03T00:47:35.138Z,60602.14
2019-02-03T00:50:05.957Z,60601.13
2019-02-03T00:52:35.000Z,60602.14
2019-02-03T00:55:03.393Z,60563.53
2019-02-03T00:57:32.391Z,60586.90
2019-02-03T01:00:01.320Z,60613.32
2019-02-03T01:02:30.086Z,60602.14
2019-02-03T01:04:58.487Z,60589.95
2019-02-03T01:07:27.904Z,60622.47
2019-02-03T01:09:56.572Z,60561.50
2019-02-03T01:12:25.291Z,60601.13
2019-02-03T01:14:53.648Z,60544.22
2019-02-03T01:17:22.639Z,60571.66
2019-02-03T01:19:51.326Z,60598.08
2019-02-03T01:22:19.732Z,60616.37
2019-02-03T01:24:48.595Z,60601.13
2019-02-03T01:27:17.276Z,60596.05
2019-02-03T01:29:45.993Z,60614.34
2019-02-03T01:32:14.661Z,60601.13
2019-02-03T01:34:43.114Z,60619.42
2019-02-03T01:37:11.923Z,60577.75
2019-02-03T01:39:40.606Z,60610.27
2019-02-03T01:42:09.399Z,60593.00
2019-02-03T01:44:37.787Z,60577.75
2019-02-03T01:47:06.463Z,60610.27
2019-02-03T01:49:34.843Z,60588.93
2019-02-03T01:52:03.318Z,60602.14
2019-02-03T01:54:31.718Z,60564.54
2019-02-03T01:57:00.389Z,60602.14
2019-02-03T01:59:29.264Z,60588.93
2019-02-03T02:01:57.656Z,60561.50
2019-02-03T02:04:26.053Z,60582.84
2019-02-03T02:06:54.454Z,60600.11
2019-02-03T02:09:23.101Z,60610.27
2019-02-03T02:11:51.492Z,60599.10
2019-02-03T02:14:20.274Z,60614.34
2019-02-03T02:16:49.005Z,60589.95
2019-02-03T02:19:17.398Z,60593.00
2019-02-03T02:21:45.808Z,60630.60
2019-02-03T02:24:14.218Z,60622.47
2019-02-03T02:26:42.707Z,60603.16
2019-02-03T02:29:11.571Z,60585.88
2019-02-03T02:31:39.978Z,60619.42
2019-02-03T02:34:08.391Z,60565.56
2019-02-03T02:36:36.779Z,60615.36
2019-02-03T02:39:07.227Z,60584.87
2019-02-03T02:41:35.908Z,60603.16
2019-02-03T02:44:04.728Z,60601.13
2019-02-03T02:46:33.134Z,60608.24
2019-02-03T02:49:01.521Z,60632.63
2019-02-03T02:51:29.911Z,60619.42
2019-02-03T02:53:58.993Z,60593.00
2019-02-03T02:56:27.822Z,60595.03
2019-02-03T02:58:56.484Z,60617.39
2019-02-03T03:01:25.310Z,60604.18
2019-02-03T03:03:53.807Z,60603.16
2019-02-03T03:06:22.270Z,60584.87
2019-02-03T03:08:50.962Z,60596.05
2019-02-03T03:11:19.476Z,60617.39
2019-02-03T03:13:48.174Z,60588.93
2019-02-03T03:16:16.578Z,60618.40
2019-02-03T03:18:45.084Z,60566.57
2019-02-03T03:21:13.775Z,60596.05
2019-02-03T03:23:42.163Z,60590.96
2019-02-03T03:26:10.837Z,60601.13
2019-02-03T03:28:39.226Z,60636.70
2019-02-03T03:31:07.643Z,60626.54
2019-02-03T03:33:36.035Z,60601.13
2019-02-03T03:36:05.577Z,60630.60
2019-02-03T03:38:33.962Z,60601.13
2019-02-03T03:41:02.474Z,60607.23
2019-02-03T03:43:30.866Z,60601.13
2019-02-03T03:45:59.257Z,60607.23
2019-02-03T03:48:27.747Z,60613.32
2019-02-03T03:50:56.193Z,60593.00
2019-02-03T03:53:25.061Z,60609.26
2019-02-03T03:55:53.695Z,60581.82
2019-02-03T03:58:22.089Z,60609.26
2019-02-03T04:00:50.476Z,60596.05
2019-02-03T04:03:19.186Z,60633.65
2019-02-03T04:05:47.970Z,60605.20
2019-02-03T04:08:16.382Z,60619.42
2019-02-03T04:10:44.858Z,60595.03
2019-02-03T04:13:13.341Z,60613.32
2019-02-03T04:15:42.000Z,60588.93
2019-02-03T04:18:10.403Z,60584.87
2019-02-03T04:20:38.947Z,60609.26
2019-02-03T04:23:07.336Z,60598.08
2019-02-03T04:25:35.740Z,60582.84
2019-02-03T04:28:04.816Z,60629.58
2019-02-03T04:30:33.215Z,60582.84
2019-02-03T04:33:01.622Z,60590.96
2019-02-03T04:35:30.014Z,60602.14
2019-02-03T04:37:58.403Z,60581.82
2019-02-03T04:40:27.124Z,60623.48
2019-02-03T04:42:55.511Z,60578.77
2019-02-03T04:45:24.062Z,60591.98
2019-02-03T04:47:52.776Z,60590.96
2019-02-03T04:50:22.146Z,60580.80
2019-02-03T04:52:50.599Z,60586.90
2019-02-03T04:55:21.278Z,60617.39
2019-02-03T04:57:49.732Z,60584.87
2019-02-03T05:00:23.417Z,60591.98
2019-02-03T05:02:52.209Z,60594.02
2019-02-03T05:05:20.985Z,60589.95
2019-02-03T05:07:49.425Z,60618.40
2019-02-03T05:10:18.558Z,60587.92
2019-02-03T05:12:47.162Z,60588.93
2019-02-03T05:15:17.590Z,60605.20
2019-02-03T05:17:45.997Z,60621.45
2019-02-03T05:20:17.278Z,60622.47
2019-02-03T05:22:45.943Z,60626.54
2019-02-03T05:25:14.902Z,60593.00
2019-02-03T05:27:43.531Z,60597.06
2019-02-03T05:30:26.650Z,60586.90
2019-02-03T05:32:55.539Z,60607.23
2019-02-03T05:35:23.923Z,60608.24
2019-02-03T05:37:52.424Z,60612.31
2019-02-03T05:40:20.911Z,60585.88
2019-02-03T05:42:49.302Z,60606.21
2019-02-03T05:45:20.343Z,60600.11
2019-02-03T05:47:50.217Z,60600.11
2019-02-03T05:50:21.532Z,60593.00
2019-02-03T05:52:50.279Z,60616.37
2019-02-03T05:55:19.839Z,60601.13
2019-02-03T05:57:48.327Z,60593.00
2019-02-03T06:00:21.391Z,60602.14
2019-02-03T06:02:49.891Z,60620.44
2019-02-03T06:05:18.552Z,60570.64
2019-02-03T06:07:46.948Z,60595.03
2019-02-03T06:10:19.372Z,60604.18
2019-02-03T06:12:48.029Z,60616.37
2019-02-03T06:15:17.252Z,60629.58
2019-02-03T06:17:45.642Z,60615.36
2019-02-03T06:20:20.057Z,60606.21
2019-02-03T06:22:48.930Z,60629.58
2019-02-03T06:25:17.585Z,60614.34
2019-02-03T06:27:46.328Z,60581.82
2019-02-03T06:30:23.440Z,60603.16
2019-02-03T06:32:51.847Z,60572.67
2019-02-03T06:35:20.323Z,60605.20
2019-02-03T06:37:48.782Z,60579.79
2019-02-03T06:40:17.342Z,60612.31
2019-02-03T06:42:46.304Z,60602.14
2019-02-03T06:45:19.396Z,60608.24
2019-02-03T06:47:47.789Z,60597.06
2019-02-03T06:50:16.450Z,60604.18
2019-02-03T06:52:44.844Z,60604.18
2019-02-03T06:55:13.532Z,60603.16
2019-02-03T06:57:41.972Z,60583.85
2019-02-03T07:00:13.124Z,60629.58
2019-02-03T07:02:41.546Z,60590.96
2019-02-03T07:05:10.704Z,60594.02
2019-02-03T07:07:39.099Z,60575.72
2019-02-03T07:10:10.389Z,60604.18
2019-02-03T07:12:38.806Z,60584.87
2019-02-03T07:15:09.638Z,60597.06
2019-02-03T07:17:38.351Z,60594.02
2019-02-03T07:20:14.871Z,60578.77
2019-02-03T07:22:43.278Z,60579.79
2019-02-03T07:25:11.851Z,60583.85
2019-02-03T07:27:40.250Z,60634.66
2019-02-03T07:30:17.007Z,60597.06
2019-02-03T07:32:45.380Z,60609.26
2019-02-03T07:35:13.845Z,60599.10
2019-02-03T07:37:42.231Z,60611.29
2019-02-03T07:40:16.425Z,60577.75
2019-02-03T07:42:44.882Z,60602.14
2019-02-03T07:45:13.665Z,60596.05
2019-02-03T07:47:42.653Z,60608.24
2019-02-03T07:50:13.698Z,60603.16
2019-02-03T07:52:42.159Z,60617.39
2019-02-03T07:55:12.916Z,60619.42
2019-02-03T07:57:41.620Z,60602.14
2019-02-03T08:00:15.338Z,60594.02
2019-02-03T08:02:43.731Z,60602.14
2019-02-03T08:05:12.694Z,60602.14
2019-02-03T08:07:41.081Z,60587.92
2019-02-03T08:10:23.886Z,60578.77
2019-02-03T08:12:42.623Z,60586.90
2019-02-03T08:15:19.103Z,60586.90
2019-02-03T08:17:47.847Z,60607.23
2019-02-03T08:20:19.019Z,60595.03
2019-02-03T08:22:47.563Z,60586.90
2019-02-03T08:25:17.195Z,60613.32
2019-02-03T08:27:45.861Z,60585.88
2019-02-03T08:30:23.899Z,60577.75
2019-02-03T08:32:52.292Z,60597.06
2019-02-03T08:35:20.838Z,60562.51
2019-02-03T08:37:49.246Z,60579.79
2019-02-03T08:40:22.501Z,60590.96
2019-02-03T08:42:50.891Z,60606.21
2019-02-03T08:45:21.339Z,60576.74
2019-02-03T08:47:49.737Z,60581.82
2019-02-03T08:50:25.329Z,60574.71
2019-02-03T08:52:54.062Z,60593.00
2019-02-03T08:55:22.564Z,60608.24
2019-02-03T08:57:51.068Z,60596.05
2019-02-03T09:00:33.849Z,60589.95
2019-02-03T09:03:02.236Z,60584.87
2019-02-03T09:05:31.042Z,60584.87
2019-02-03T09:08:00.412Z,60594.02
2019-02-03T09:10:28.793Z,60610.27
2019-02-03T09:12:57.188Z,60597.06
2019-02-03T09:15:27.339Z,60587.92
2019-02-03T09:17:55.721Z,60593.00
2019-02-03T09:20:29.810Z,60600.11
2019-02-03T09:22:58.610Z,60584.87
2019-02-03T09:25:27.094Z,60580.80
2019-02-03T09:27:55.747Z,60610.27
2019-02-03T09:30:29.040Z,60601.13
2019-02-03T09:33:00.569Z,60626.54
2019-02-03T09:35:29.379Z,60610.27
2019-02-03T09:37:58.804Z,60603.16
2019-02-03T09:40:29.843Z,60597.06
2019-02-03T09:42:58.333Z,60617.39
2019-02-03T09:45:30.579Z,60585.88
2019-02-03T09:47:58.960Z,60582.84
2019-02-03T09:50:32.338Z,60589.95
2019-02-03T09:53:04.184Z,60588.93
2019-02-03T09:55:32.581Z,60601.13
2019-02-03T09:58:01.934Z,60614.34
2019-02-03T10:00:35.700Z,60586.90
2019-02-03T10:03:06.043Z,60630.60
2019-02-03T10:05:37.068Z,60578.77
2019-02-03T10:08:05.946Z,60638.73
2019-02-03T10:10:36.648Z,60601.13
2019-02-03T10:13:05.712Z,60589.95
2019-02-03T10:15:34.193Z,60598.08
2019-02-03T10:18:02.802Z,60603.16
2019-02-03T10:20:31.209Z,60609.26
2019-02-03T10:22:59.587Z,60587.92
2019-02-03T10:25:30.199Z,60594.02
2019-02-03T10:27:58.908Z,60584.87
2019-02-03T10:30:27.775Z,60562.51
2019-02-03T10:32:57.477Z,60585.88
2019-02-03T10:35:30.645Z,60569.62
2019-02-03T10:37:59.332Z,60570.64
2019-02-03T10:40:30.082Z,60613.32
2019-02-03T10:42:59.927Z,60594.02
2019-02-03T10:45:28.545Z,60591.98
2019-02-03T10:47:57.002Z,60595.03
2019-02-03T10:50:28.701Z,60587.92
2019-02-03T10:52:57.226Z,60586.90
2019-02-03T10:55:26.246Z,60612.31
2019-02-03T10:57:54.812Z,60587.92
2019-02-03T11:00:31.777Z,60571.66
2019-02-03T11:03:00.709Z,60575.72
2019-02-03T11:05:35.519Z,60581.82
2019-02-03T11:08:04.172Z,60571.66
2019-02-03T11:10:32.583Z,60575.72
2019-02-03T11:13:01.502Z,60581.82
2019-02-03T11:15:30.607Z,60599.10
2019-02-03T11:17:59.298Z,60583.85
2019-02-03T11:20:34.481Z,60583.85
2019-02-03T11:23:06.640Z,60551.33
2019-02-03T11:25:42.504Z,60589.95
2019-02-03T11:28:09.705Z,60585.88
2019-02-03T11:30:39.442Z,60579.79
2019-02-03T11:33:09.692Z,60586.90
2019-02-03T11:35:38.770Z,60554.38
2019-02-03T11:38:07.412Z,60605.20
2019-02-03T11:40:37.969Z,60574.71
2019-02-03T11:43:07.713Z,60546.25
2019-02-03T11:45:41.237Z,60559.46
2019-02-03T11:48:15.075Z,60593.00
2019-02-03T11:50:45.018Z,60566.57
2019-02-03T11:53:16.087Z,60563.53
2019-02-03T11:55:44.485Z,60576.74
2019-02-03T11:58:13.256Z,60545.23
2019-02-03T12:00:41.972Z,60595.03
2019-02-03T12:03:11.280Z,60567.59
2019-02-03T12:05:39.814Z,60614.34
2019-02-03T12:08:09.355Z,60579.79
2019-02-03T12:10:38.249Z,60577.75
2019-02-03T12:13:07.675Z,60552.35
2019-02-03T12:15:36.837Z,60570.64
2019-02-03T12:18:06.841Z,60578.77
2019-02-03T12:20:35.755Z,60562.51
2019-02-03T12:23:04.919Z,60538.12
2019-02-03T12:25:36.188Z,60538.12
2019-02-03T12:28:06.254Z,60546.25
2019-02-03T12:30:35.478Z,60554.38
2019-02-03T12:33:05.399Z,60526.95
2019-02-03T12:35:34.232Z,60553.36
2019-02-03T12:38:02.695Z,60605.20
2019-02-03T12:40:33.677Z,60544.22
2019-02-03T12:43:02.262Z,60573.69
2019-02-03T12:45:30.842Z,60563.53
2019-02-03T12:47:59.503Z,60571.66
2019-02-03T12:50:28.398Z,60560.48
2019-02-03T12:52:57.075Z,60565.56
2019-02-03T12:55:31.738Z,60584.87
2019-02-03T12:58:01.222Z,60561.50
2019-02-03T13:00:37.308Z,60562.51
2019-02-03T13:03:07.631Z,60559.46
2019-02-03T13:05:36.416Z,60552.35
2019-02-03T13:08:06.293Z,60546.25
2019-02-03T13:10:36.719Z,60550.32
2019-02-03T13:13:06.570Z,60561.50
2019-02-03T13:15:37.831Z,60547.27
2019-02-03T13:18:07.589Z,60581.82
2019-02-03T13:20:36.523Z,60560.48
2019-02-03T13:23:05.888Z,60586.90
2019-02-03T13:25:34.629Z,60569.62
2019-02-03T13:28:03.376Z,60550.32
2019-02-03T13:30:34.443Z,60519.83
2019-02-03T13:33:02.832Z,60544.22
2019-02-03T13:35:31.303Z,60557.43
2019-02-03T13:37:59.962Z,60573.69
2019-02-03T13:40:28.778Z,60569.62
2019-02-03T13:42:57.178Z,60555.40
2019-02-03T13:45:27.213Z,60529.99
2019-02-03T13:47:58.424Z,60559.46
2019-02-03T13:50:28.154Z,60548.29
2019-02-03T13:52:57.451Z,60533.04
2019-02-03T13:55:26.962Z,60573.69
2019-02-03T13:57:56.018Z,60527.96
2019-02-03T14:00:27.400Z,60572.67
2019-02-03T14:02:56.141Z,60542.19
2019-02-03T14:05:24.669Z,60541.17
2019-02-03T14:07:53.626Z,60568.61
2019-02-03T14:10:28.021Z,60544.22
2019-02-03T14:12:57.264Z,60534.06
2019-02-03T14:15:26.285Z,60578.77
2019-02-03T14:17:54.989Z,60545.23
2019-02-03T14:20:28.483Z,60565.56
2019-02-03T14:22:57.624Z,60528.98
2019-02-03T14:25:26.804Z,60538.12
2019-02-03T14:27:55.466Z,60537.11
2019-02-03T14:30:40.049Z,60565.56
2019-02-03T14:33:00.000Z,60536.09
2019-02-03T14:35:28.737Z,60542.19
2019-02-03T14:37:57.188Z,60522.88
2019-02-03T14:40:26.130Z,60541.17
2019-02-03T14:43:01.905Z,60569.62
2019-02-03T14:45:27.629Z,60553.36
2019-02-03T14:47:56.121Z,60590.96
2019-02-03T14:50:26.277Z,60541.17
2019-02-03T14:52:57.418Z,60572.67
2019-02-03T14:55:28.952Z,60569.62
2019-02-03T14:57:57.807Z,60532.02
2019-02-03T15:00:38.080Z,60554.38
2019-02-03T15:03:09.382Z,60585.88
2019-02-03T15:05:38.004Z,60534.06
2019-02-03T15:08:07.490Z,60577.75
2019-02-03T15:10:36.237Z,60570.64
2019-02-03T15:13:13.076Z,60525.93
2019-02-03T15:15:36.513Z,60521.86
2019-02-03T15:18:05.463Z,60556.41
2019-02-03T15:20:33.934Z,60535.07
2019-02-03T15:23:02.393Z,60544.22
2019-02-03T15:25:30.971Z,60544.22
2019-02-03T15:27:59.611Z,60560.48
2019-02-03T15:30:37.295Z,60550.32
2019-02-03T15:33:06.045Z,60570.64
2019-02-03T15:35:34.501Z,60516.78
2019-02-03T15:38:03.293Z,60558.45
2019-02-03T15:40:31.711Z,60545.23
2019-02-03T15:43:00.479Z,60561.50
2019-02-03T15:45:29.154Z,60534.06
2019-02-03T15:47:57.549Z,60511.70
2019-02-03T15:50:30.847Z,60524.91
2019-02-03T15:53:00.428Z,60543.20
2019-02-03T15:55:32.054Z,60552.35
2019-02-03T15:58:00.854Z,60533.04
2019-02-03T16:00:34.755Z,60541.17
2019-02-03T16:03:03.325Z,60552.35
2019-02-03T16:05:31.845Z,60552.35
2019-02-03T16:08:00.442Z,60536.09
2019-02-03T16:10:29.297Z,60541.17
2019-02-03T16:12:57.695Z,60543.20
2019-02-03T16:15:26.188Z,60523.89
2019-02-03T16:17:54.644Z,60534.06
2019-02-03T16:20:28.609Z,60516.78
2019-02-03T16:22:55.552Z,60551.33
2019-02-03T16:25:23.937Z,60561.50
2019-02-03T16:27:52.384Z,60544.22
2019-02-03T16:30:33.207Z,60558.45
2019-02-03T16:33:02.050Z,60553.36
2019-02-03T16:35:30.727Z,60540.15
2019-02-03T16:37:59.356Z,60534.06
2019-02-03T16:40:30.083Z,60518.82
2019-02-03T16:42:58.552Z,60551.33
2019-02-03T16:45:27.076Z,60555.40
2019-02-03T16:47:56.024Z,60536.09
2019-02-03T16:50:27.074Z,60541.17
2019-02-03T16:52:56.166Z,60519.83
2019-02-03T16:55:24.629Z,60532.02
2019-02-03T16:57:53.152Z,60542.19
2019-02-03T17:00:27.199Z,60525.93
2019-02-03T17:02:56.028Z,60542.19
2019-02-03T17:05:30.283Z,60543.20
2019-02-03T17:08:01.264Z,60559.46
2019-02-03T17:10:30.019Z,60536.09
2019-02-03T17:12:59.746Z,60537.11
2019-02-03T17:15:30.614Z,60566.57
2019-02-03T17:17:59.631Z,60527.96
2019-02-03T17:20:28.383Z,60560.48
2019-02-03T17:22:56.961Z,60542.19
2019-02-03T17:25:37.767Z,60512.72
2019-02-03T17:28:06.694Z,60516.78
2019-02-03T17:30:35.537Z,60558.45
2019-02-03T17:33:04.787Z,60541.17
2019-02-03T17:35:35.603Z,60525.93
2019-02-03T17:38:04.496Z,60539.14
2019-02-03T17:40:32.986Z,60540.15
2019-02-03T17:43:01.435Z,60586.90
2019-02-03T17:45:29.951Z,60551.33
2019-02-03T17:47:58.343Z,60563.53
2019-02-03T17:50:29.566Z,60566.57
2019-02-03T17:52:58.205Z,60554.38
2019-02-03T17:55:29.292Z,60522.88
2019-02-03T17:57:58.148Z,60552.35
2019-02-03T18:00:38.820Z,60528.98
2019-02-03T18:03:07.781Z,60551.33
2019-02-03T18:05:36.169Z,60574.71
2019-02-03T18:08:06.968Z,60557.43
2019-02-03T18:10:35.750Z,60529.99
2019-02-03T18:13:04.774Z,60573.69
2019-02-03T18:15:33.168Z,60562.51
2019-02-03T18:18:01.558Z,60571.66
2019-02-03T18:20:30.702Z,60542.19
2019-02-03T18:22:59.079Z,60557.43
2019-02-03T18:25:27.785Z,60531.01
2019-02-03T18:27:56.491Z,60584.87
2019-02-03T18:30:26.995Z,60554.38
2019-02-03T18:32:57.300Z,60546.25
2019-02-03T18:35:25.761Z,60548.29
2019-02-03T18:37:57.096Z,60553.36
2019-02-03T18:40:25.497Z,60553.36
2019-02-03T18:42:54.053Z,60553.36
2019-02-03T18:45:24.788Z,60566.57
2019-02-03T18:47:53.291Z,60555.40
2019-02-03T18:50:23.147Z,60559.46
2019-02-03T18:52:52.234Z,60560.48
2019-02-03T18:55:23.842Z,60562.51
2019-02-03T18:57:52.227Z,60543.20
2019-02-03T19:00:29.526Z,60556.41
2019-02-03T19:02:58.147Z,60556.41
2019-02-03T19:05:29.244Z,60548.29
2019-02-03T19:07:57.704Z,60558.45
2019-02-03T19:10:27.227Z,60541.17
2019-02-03T19:12:55.769Z,60562.51
2019-02-03T19:15:27.007Z,60534.06
2019-02-03T19:17:55.676Z,60572.67
2019-02-03T19:20:27.152Z,60544.22
2019-02-03T19:22:55.719Z,60542.19
2019-02-03T19:25:24.638Z,60557.43
2019-02-03T19:27:53.171Z,60552.35
2019-02-03T19:30:23.596Z,60551.33
2019-02-03T19:32:52.784Z,60563.53
2019-02-03T19:35:26.850Z,60570.64
2019-02-03T19:37:55.238Z,60552.35
2019-02-03T19:40:29.225Z,60533.04
2019-02-03T19:42:57.761Z,60597.06
2019-02-03T19:45:31.118Z,60594.02
2019-02-03T19:47:59.700Z,60585.88
2019-02-03T19:50:34.302Z,60552.35
2019-02-03T19:53:02.994Z,60589.95
2019-02-03T19:55:31.545Z,60563.53
2019-02-03T19:58:00.601Z,60556.41
2019-02-03T20:00:34.657Z,60534.06
2019-02-03T20:03:03.592Z,60562.51
2019-02-03T20:05:32.057Z,60548.29
2019-02-03T20:08:00.506Z,60585.88
2019-02-03T20:10:30.650Z,60556.41
2019-02-03T20:13:01.674Z,60566.57
2019-02-03T20:15:29.681Z,60568.61
2019-02-03T20:17:58.271Z,60550.32
2019-02-03T20:20:35.735Z,60550.32
2019-02-03T20:23:06.624Z,60547.27
2019-02-03T20:25:35.171Z,60551.33
2019-02-03T20:28:04.376Z,60542.19
2019-02-03T20:30:38.520Z,60569.62
2019-02-03T20:33:03.188Z,60577.75
2019-02-03T20:35:31.665Z,60556.41
2019-02-03T20:38:00.749Z,60583.85
2019-02-03T20:40:34.738Z,60575.72
2019-02-03T20:43:03.326Z,60579.79
2019-02-03T20:45:32.124Z,60562.51
2019-02-03T20:48:00.646Z,60557.43
2019-02-03T20:50:29.041Z,60577.75
2019-02-03T20:52:59.659Z,60575.72
2019-02-03T20:55:28.192Z,60544.22
2019-02-03T20:57:56.683Z,60552.35
2019-02-03T21:00:36.763Z,60576.74
2019-02-03T21:03:06.557Z,60541.17
2019-02-03T21:05:35.657Z,60572.67
2019-02-03T21:08:04.656Z,60566.57
2019-02-03T21:10:33.075Z,60586.90
2019-02-03T21:13:10.792Z,60584.87
2019-02-03T21:15:33.951Z,60550.32
2019-02-03T21:18:01.831Z,60543.20
2019-02-03T21:20:32.991Z,60574.71
2019-02-03T21:23:01.546Z,60544.22
2019-02-03T21:25:30.041Z,60582.84
2019-02-03T21:27:58.518Z,60617.39
2019-02-03T21:30:37.992Z,60579.79
2019-02-03T21:33:06.622Z,60549.30
2019-02-03T21:35:35.466Z,60549.30
2019-02-03T21:38:04.522Z,60566.57
2019-02-03T21:40:33.236Z,60557.43
2019-02-03T21:43:01.641Z,60573.69
2019-02-03T21:45:30.394Z,60602.14
2019-02-03T21:47:59.082Z,60575.72
2019-02-03T21:50:29.939Z,60583.85
2019-02-03T21:52:58.577Z,60603.16
2019-02-03T21:55:27.549Z,60563.53
2019-02-03T21:57:56.215Z,60586.90
2019-02-03T22:00:28.284Z,60576.74
2019-02-03T22:02:56.667Z,60577.75
2019-02-03T22:05:25.511Z,60553.36
2019-02-03T22:07:53.956Z,60556.41
2019-02-03T22:10:25.448Z,60589.95
2019-02-03T22:12:54.243Z,60557.43
2019-02-03T22:15:22.997Z,60572.67
2019-02-03T22:17:52.393Z,60567.59
2019-02-03T22:20:23.065Z,60559.46
2019-02-03T22:22:51.534Z,60567.59
2019-02-03T22:25:19.994Z,60570.64
2019-02-03T22:27:49.040Z,60565.56
2019-02-03T22:30:20.073Z,60528.98
2019-02-03T22:32:48.563Z,60559.46
2019-02-03T22:35:17.230Z,60575.72
2019-02-03T22:37:45.613Z,60566.57
2019-02-03T22:40:16.685Z,60568.61
2019-02-03T22:42:45.259Z,60558.45
2019-02-03T22:45:22.520Z,60593.00
2019-02-03T22:47:51.059Z,60559.46
2019-02-03T22:50:24.131Z,60589.95
2019-02-03T22:52:52.789Z,60543.20
2019-02-03T22:55:21.374Z,60579.79
2019-02-03T22:57:49.791Z,60560.48
2019-02-03T23:00:31.845Z,60553.36
2019-02-03T23:03:00.533Z,60561.50
2019-02-03T23:05:29.537Z,60565.56
2019-02-03T23:07:58.032Z,60571.66
2019-02-03T23:10:26.499Z,60515.77
2019-02-03T23:12:54.983Z,60565.56
2019-02-03T23:15:23.385Z,60580.80
2019-02-03T23:17:51.767Z,60600.11
2019-02-03T23:20:20.716Z,60550.32
2019-02-03T23:22:49.401Z,60581.82
2019-02-03T23:25:18.097Z,60575.72
2019-02-03T23:27:47.192Z,60581.82
2019-02-03T23:30:17.404Z,60570.64
2019-02-03T23:32:45.869Z,60570.64
2019-02-03T23:35:14.719Z,60567.59
2019-02-03T23:37:43.103Z,60574.71
2019-02-03T23:40:14.373Z,60562.51
2019-02-03T23:42:43.088Z,60549.30
2019-02-03T23:45:13.603Z,60580.80
2019-02-03T23:47:41.998Z,60562.51
2019-02-03T23:50:14.067Z,60576.74
2019-02-03T23:52:42.556Z,60553.36
2019-02-03T23:55:11.338Z,60570.64
2019-02-03T23:57:40.129Z,60572.67
